CYDQ

Details ICAO CYDQ (YDQ)
Name DAWSON CREEK
Region Canada
Timezone America/Dawson_Creek (UTC-7.0)
Plans Departing 6
Arriving 6
Stats Elevation 2,148 ft / 655 m (AMSL)
Location 55.741667° -120.181525°
Runways 1
Magnetic Variation 17.197° E
Sunrise 2018-05-27 11:31:30 UTC / 2018-05-27 04:31:30 Local
Sunset 2018-05-28 04:27:13 UTC / 2018-05-27 21:27:13 Local
Advertisement - Login to hide

Runways

ID Width Length Bearing (true) Bearing (mag) Surface Threshold Offset Overrun Length
06 150 ft / 46 m 4,982 ft / 1,519 m 85.32° 68.12° Asphalt 0 ft / 0 m 0 ft / 0 m
24 150 ft / 46 m 4,982 ft / 1,519 m 265.34° 248.14° Asphalt 0 ft / 0 m 0 ft / 0 m

Map

Weather


0- 5 10 15 20 25 30 35+ Temperature / ° C

Clouds and Precipitation
Forecast for 2018-05-27 12:00 UTC. Updated 5 hours ago

Ground ~20,000 ft ~40,000 ft Winds

METAR

CYDQ 271600Z AUTO 25017G26KT 9SM FEW250 14/04 A2995 RMK SLP158 DENSITY ALT 2400FT

TAF

TAF TAF CYDQ 271238Z 2713/2801 22015G25KT P6SM BKN180 FM271800 24015G25KT P6SM BKN080 RMK FCST BASED ON AUTO OBS. NXT FCST BY 271900Z

Frequencies

Tower 122.20 MHz MF PEACE RIVER RDO
Warning: Do not use this data for real-world aviation or navigation. No guarantee of current accuracy is given.